createdAt,value
2023-09-12T00:00:46.264Z,72.66
2023-09-12T00:01:48.940Z,72.62
2023-09-12T00:02:51.672Z,72.51
2023-09-12T00:03:54.501Z,72.64
2023-09-12T00:04:57.209Z,72.94
2023-09-12T00:06:01.824Z,72.89
2023-09-12T00:07:04.645Z,72.75
2023-09-12T00:08:07.900Z,72.73
2023-09-12T00:09:10.581Z,72.84
2023-09-12T00:10:13.333Z,72.86
2023-09-12T00:11:16.035Z,72.73
2023-09-12T00:12:18.670Z,72.75
2023-09-12T00:13:21.313Z,72.69
2023-09-12T00:14:23.950Z,72.60
2023-09-12T00:15:26.605Z,72.46
2023-09-12T00:16:29.304Z,72.42
2023-09-12T00:17:32.319Z,72.25
2023-09-12T00:18:35.904Z,72.19
2023-09-12T00:19:38.557Z,72.14
2023-09-12T00:20:41.333Z,72.33
2023-09-12T00:21:44.022Z,72.14
2023-09-12T00:22:47.407Z,72.06
2023-09-12T00:23:50.039Z,72.04
2023-09-12T00:24:52.613Z,72.14
2023-09-12T00:25:55.305Z,72.25
2023-09-12T00:26:58.004Z,72.20
2023-09-12T00:28:00.599Z,72.16
2023-09-12T00:29:03.262Z,72.12
2023-09-12T00:30:06.542Z,72.28
2023-09-12T00:31:09.237Z,72.36
2023-09-12T00:32:11.852Z,72.36
2023-09-12T00:33:14.535Z,72.36
2023-09-12T00:34:18.568Z,72.38
2023-09-12T00:35:21.288Z,72.36
2023-09-12T00:36:24.013Z,72.28
2023-09-12T00:37:26.676Z,72.25
2023-09-12T00:38:29.316Z,72.33
2023-09-12T00:39:32.071Z,72.56
2023-09-12T00:40:34.742Z,72.77
2023-09-12T00:41:37.374Z,72.82
2023-09-12T00:42:40.051Z,72.76
2023-09-12T00:43:43.163Z,72.75
2023-09-12T00:44:45.762Z,72.70
2023-09-12T00:45:48.527Z,72.56
2023-09-12T00:46:52.849Z,72.70
2023-09-12T00:47:55.980Z,72.55
2023-09-12T00:49:00.816Z,72.58
2023-09-12T00:50:04.236Z,72.84
2023-09-12T00:51:07.327Z,72.78
2023-09-12T00:52:10.124Z,72.66
2023-09-12T00:53:13.447Z,72.58
2023-09-12T00:54:16.282Z,72.74
2023-09-12T00:55:19.051Z,72.89
2023-09-12T00:56:21.677Z,73.02
2023-09-12T00:57:25.366Z,72.98
2023-09-12T00:58:28.948Z,72.98
2023-09-12T00:59:31.922Z,72.98
2023-09-12T01:00:42.621Z,72.93
2023-09-12T01:01:45.758Z,72.89
2023-09-12T01:02:48.691Z,73.01
2023-09-12T01:03:51.565Z,73.12
2023-09-12T01:04:54.852Z,73.14
2023-09-12T01:05:59.200Z,73.19
2023-09-12T01:07:01.865Z,73.08
2023-09-12T01:08:04.817Z,73.14
2023-09-12T01:09:08.953Z,73.33
2023-09-12T01:10:11.968Z,73.20
2023-09-12T01:11:15.297Z,73.08
2023-09-12T01:12:18.870Z,73.04
2023-09-12T01:13:21.795Z,73.02
2023-09-12T01:14:24.510Z,73.09
2023-09-12T01:15:27.304Z,73.19
2023-09-12T01:16:29.992Z,73.24
2023-09-12T01:17:32.730Z,73.33
2023-09-12T01:18:35.739Z,73.39
2023-09-12T01:19:38.370Z,73.47
2023-09-12T01:20:43.632Z,73.58
2023-09-12T01:22:03.949Z,73.41
2023-09-12T01:23:25.423Z,73.40
2023-09-12T01:24:40.151Z,73.65
2023-09-12T01:26:04.818Z,73.72
2023-09-12T01:27:27.338Z,73.93
2023-09-12T01:28:35.794Z,74.07
2023-09-12T01:29:40.095Z,74.24
2023-09-12T01:30:43.722Z,74.31
2023-09-12T01:31:49.178Z,74.38
2023-09-12T01:32:52.275Z,74.45
2023-09-12T01:33:58.938Z,74.52
2023-09-12T01:35:01.837Z,74.65
2023-09-12T01:36:04.739Z,74.78
2023-09-12T01:37:07.412Z,74.84
2023-09-12T01:38:10.100Z,74.98
2023-09-12T01:39:12.914Z,75.10
2023-09-12T01:40:17.216Z,75.23
2023-09-12T01:41:20.353Z,75.28
2023-09-12T01:42:23.894Z,75.36
2023-09-12T01:43:28.254Z,75.36
2023-09-12T01:44:33.092Z,75.51
2023-09-12T01:45:37.220Z,75.61
2023-09-12T01:46:40.996Z,75.68
2023-09-12T01:47:44.271Z,75.75
2023-09-12T01:48:47.744Z,75.80
2023-09-12T01:49:53.931Z,75.83
2023-09-12T01:50:56.620Z,75.85
2023-09-12T01:52:00.496Z,75.89
2023-09-12T01:53:03.369Z,75.84
2023-09-12T01:54:07.269Z,75.91
2023-09-12T01:55:11.663Z,75.90
2023-09-12T01:56:14.681Z,75.86
2023-09-12T01:57:17.559Z,75.89
2023-09-12T01:58:20.733Z,75.87
2023-09-12T01:59:23.334Z,75.86
2023-09-12T02:00:26.164Z,75.79
2023-09-12T02:01:28.976Z,75.84
2023-09-12T02:02:31.679Z,75.88
2023-09-12T02:03:34.334Z,75.93
2023-09-12T02:04:37.028Z,75.74
2023-09-12T02:05:39.645Z,75.67
2023-09-12T02:06:42.386Z,75.62
2023-09-12T02:07:45.957Z,75.80
2023-09-12T02:08:48.598Z,75.86
2023-09-12T02:09:51.196Z,75.82
2023-09-12T02:10:53.769Z,75.71
2023-09-12T02:11:56.366Z,75.55
2023-09-12T02:12:59.014Z,75.52
2023-09-12T02:14:01.596Z,75.48
2023-09-12T02:15:04.881Z,75.38
2023-09-12T02:16:07.604Z,75.25
2023-09-12T02:17:10.469Z,75.18
2023-09-12T02:18:13.612Z,75.17
2023-09-12T02:19:16.289Z,75.07
2023-09-12T02:20:19.716Z,74.91
2023-09-12T02:21:22.377Z,74.84
2023-09-12T02:22:25.083Z,74.90
2023-09-12T02:23:27.694Z,74.83
2023-09-12T02:24:30.411Z,74.75
2023-09-12T02:25:33.149Z,74.67
2023-09-12T02:26:37.590Z,74.55
2023-09-12T02:27:40.349Z,74.21
2023-09-12T02:28:43.266Z,73.99
2023-09-12T02:29:46.231Z,74.05
2023-09-12T02:30:48.895Z,74.08
2023-09-12T02:32:12.036Z,74.15
2023-09-12T02:33:14.796Z,74.13
2023-09-12T02:34:38.058Z,74.14
2023-09-12T02:35:40.676Z,74.12
2023-09-12T02:36:43.306Z,74.16
2023-09-12T02:37:46.024Z,74.14
2023-09-12T02:38:48.613Z,74.11
2023-09-12T02:39:51.222Z,74.12
2023-09-12T02:40:53.878Z,74.08
2023-09-12T02:41:56.482Z,74.14
2023-09-12T02:42:59.163Z,74.21
2023-09-12T02:44:01.784Z,74.32
2023-09-12T02:45:05.159Z,74.29
2023-09-12T02:46:07.770Z,74.33
2023-09-12T02:47:10.396Z,74.38
2023-09-12T02:48:13.518Z,74.38
2023-09-12T02:49:16.972Z,74.32
2023-09-12T02:50:19.640Z,74.22
2023-09-12T02:51:22.384Z,74.09
2023-09-12T02:52:25.010Z,74.02
2023-09-12T02:53:27.629Z,74.07
2023-09-12T02:54:30.240Z,74.18
2023-09-12T02:55:32.919Z,74.23
2023-09-12T02:56:35.505Z,74.25
2023-09-12T02:57:38.111Z,74.25
2023-09-12T02:58:41.125Z,74.25
2023-09-12T02:59:43.965Z,74.24
2023-09-12T03:00:46.786Z,74.36
2023-09-12T03:01:49.461Z,74.52
2023-09-12T03:02:52.208Z,74.66
2023-09-12T03:03:55.343Z,74.80
2023-09-12T03:04:58.082Z,74.96
2023-09-12T03:06:02.647Z,75.02
2023-09-12T03:07:05.298Z,74.95
2023-09-12T03:08:08.444Z,74.95
2023-09-12T03:09:12.618Z,75.04
2023-09-12T03:10:15.300Z,74.88
2023-09-12T03:11:17.982Z,74.92
2023-09-12T03:12:20.601Z,74.99
2023-09-12T03:13:27.307Z,74.92
2023-09-12T03:14:30.230Z,74.95
2023-09-12T03:15:37.318Z,74.96
2023-09-12T03:16:40.997Z,74.71
2023-09-12T03:17:43.652Z,74.50
2023-09-12T03:18:46.636Z,74.39
2023-09-12T03:19:49.398Z,74.30
2023-09-12T03:20:52.007Z,74.24
2023-09-12T03:21:54.891Z,74.25
2023-09-12T03:22:57.553Z,74.19
2023-09-12T03:24:00.181Z,74.27
2023-09-12T03:25:03.575Z,74.32
2023-09-12T03:26:07.339Z,74.41
2023-09-12T03:27:09.999Z,74.41
2023-09-12T03:28:12.657Z,74.45
2023-09-12T03:29:15.266Z,74.57
2023-09-12T03:30:17.875Z,74.54
2023-09-12T03:31:20.512Z,74.35
2023-09-12T03:32:23.200Z,73.96
2023-09-12T03:33:25.879Z,73.81
2023-09-12T03:34:28.508Z,73.59
2023-09-12T03:35:33.041Z,73.51
2023-09-12T03:36:35.734Z,73.67
2023-09-12T03:37:41.341Z,73.70
2023-09-12T03:38:44.391Z,73.73
2023-09-12T03:39:47.158Z,73.83
2023-09-12T03:40:49.786Z,73.84
2023-09-12T03:41:52.490Z,73.82
2023-09-12T03:42:55.201Z,73.92
2023-09-12T03:43:58.113Z,74.05
2023-09-12T03:45:00.820Z,74.13
2023-09-12T03:46:04.740Z,74.21
2023-09-12T03:47:07.336Z,74.21
2023-09-12T03:48:10.396Z,74.28
2023-09-12T03:49:13.105Z,74.42
2023-09-12T03:50:15.733Z,74.47
2023-09-12T03:51:18.414Z,74.56
2023-09-12T03:52:21.049Z,74.64
2023-09-12T03:53:23.679Z,74.64
2023-09-12T03:54:26.309Z,74.75
2023-09-12T03:55:29.142Z,74.99
2023-09-12T03:56:32.436Z,74.99
2023-09-12T03:57:35.170Z,74.78
2023-09-12T03:58:37.865Z,74.64
2023-09-12T03:59:40.519Z,74.56
2023-09-12T04:00:43.312Z,74.71
2023-09-12T04:01:46.122Z,74.75
2023-09-12T04:02:48.831Z,74.73
2023-09-12T04:03:51.653Z,74.86
2023-09-12T04:04:54.475Z,74.93
2023-09-12T04:05:57.213Z,75.11
2023-09-12T04:06:59.817Z,75.28
2023-09-12T04:08:02.457Z,75.42
2023-09-12T04:09:05.163Z,75.55
2023-09-12T04:10:07.988Z,75.70
2023-09-12T04:11:11.886Z,75.71
2023-09-12T04:12:14.590Z,75.71
2023-09-12T04:13:17.230Z,75.96
2023-09-12T04:14:19.869Z,76.21
2023-09-12T04:15:22.665Z,76.33
2023-09-12T04:16:25.964Z,76.46
2023-09-12T04:17:28.769Z,76.49
2023-09-12T04:18:31.509Z,76.46
2023-09-12T04:19:34.160Z,76.61
2023-09-12T04:20:36.746Z,76.78
2023-09-12T04:21:39.426Z,76.55
2023-09-12T04:22:43.527Z,76.47
2023-09-12T04:23:46.486Z,76.35
2023-09-12T04:24:49.196Z,76.23
2023-09-12T04:25:51.817Z,76.31
2023-09-12T04:26:55.222Z,76.35
2023-09-12T04:27:57.943Z,76.21
2023-09-12T04:29:00.583Z,76.26
2023-09-12T04:30:03.313Z,76.24
2023-09-12T04:31:06.553Z,76.03
2023-09-12T04:32:09.290Z,75.91
2023-09-12T04:33:11.953Z,75.92
2023-09-12T04:34:14.676Z,76.01
2023-09-12T04:35:18.228Z,75.98
2023-09-12T04:36:21.992Z,76.10
2023-09-12T04:37:24.636Z,76.42
2023-09-12T04:38:27.915Z,76.83
2023-09-12T04:39:31.315Z,76.93
2023-09-12T04:40:34.310Z,76.54
2023-09-12T04:41:36.951Z,76.50
2023-09-12T04:42:39.668Z,76.47
2023-09-12T04:43:42.603Z,76.55
2023-09-12T04:44:45.295Z,76.57
2023-09-12T04:45:48.003Z,76.65
2023-09-12T04:46:50.609Z,76.69
2023-09-12T04:47:53.203Z,76.80
2023-09-12T04:48:55.825Z,76.86
2023-09-12T04:49:58.491Z,76.93
2023-09-12T04:51:01.168Z,77.03
2023-09-12T04:52:03.983Z,77.17
2023-09-12T04:53:06.575Z,77.26
2023-09-12T04:54:09.176Z,77.34
2023-09-12T04:55:11.791Z,77.34
2023-09-12T04:56:14.428Z,77.40
2023-09-12T04:57:17.133Z,77.38
2023-09-12T04:58:19.760Z,77.44
2023-09-12T04:59:22.395Z,77.55
2023-09-12T05:00:25.062Z,77.88
2023-09-12T05:01:27.921Z,77.80
2023-09-12T05:02:30.650Z,77.98
2023-09-12T05:03:34.855Z,78.35
2023-09-12T05:04:37.729Z,78.04
2023-09-12T05:05:40.433Z,77.73
2023-09-12T05:06:43.406Z,77.42
2023-09-12T05:07:46.240Z,77.36
2023-09-12T05:08:48.901Z,77.30
2023-09-12T05:09:51.982Z,77.04
2023-09-12T05:10:54.674Z,76.75
2023-09-12T05:11:57.629Z,76.53
2023-09-12T05:13:00.486Z,76.29
2023-09-12T05:14:04.925Z,76.07
2023-09-12T05:15:08.229Z,75.80
2023-09-12T05:16:10.882Z,75.43
2023-09-12T05:17:13.631Z,75.10
2023-09-12T05:18:16.499Z,74.75
2023-09-12T05:19:19.531Z,74.50
2023-09-12T05:20:22.682Z,74.49
2023-09-12T05:21:25.727Z,74.23
2023-09-12T05:22:29.200Z,74.11
2023-09-12T05:23:32.486Z,73.72
2023-09-12T05:25:23.193Z,73.46
2023-09-12T05:26:26.685Z,73.30
2023-09-12T05:27:30.457Z,73.26
2023-09-12T05:28:33.347Z,72.97
2023-09-12T05:29:36.026Z,72.69
2023-09-12T05:30:40.197Z,72.76
2023-09-12T05:31:43.357Z,72.55
2023-09-12T05:32:48.231Z,72.53
2023-09-12T05:33:51.019Z,72.50
2023-09-12T05:35:03.208Z,72.31
2023-09-12T05:36:09.742Z,72.17
2023-09-12T05:37:12.637Z,72.27
2023-09-12T05:38:15.488Z,72.00
2023-09-12T05:39:19.324Z,72.00
2023-09-12T05:40:22.524Z,71.81
2023-09-12T05:41:25.425Z,71.86
2023-09-12T05:42:28.144Z,71.74
2023-09-12T05:43:32.049Z,71.58
2023-09-12T05:44:34.944Z,71.24
2023-09-12T05:45:37.736Z,71.48
2023-09-12T05:46:41.080Z,71.42
2023-09-12T05:47:44.466Z,71.43
2023-09-12T05:48:49.795Z,71.18
2023-09-12T05:49:53.613Z,71.22
2023-09-12T05:50:57.145Z,71.11
2023-09-12T05:52:02.910Z,70.89
2023-09-12T05:53:06.886Z,70.72
2023-09-12T05:54:11.969Z,70.25
2023-09-12T05:55:16.622Z,70.43
2023-09-12T05:56:22.954Z,70.56
2023-09-12T05:57:27.041Z,70.22
2023-09-12T05:58:31.064Z,69.57
2023-09-12T05:59:35.926Z,69.35
2023-09-12T06:00:38.756Z,69.00
2023-09-12T06:01:42.013Z,68.43
2023-09-12T06:02:45.310Z,67.45
2023-09-12T06:03:48.672Z,66.43
2023-09-12T06:04:52.149Z,65.23
2023-09-12T06:05:55.167Z,63.97
2023-09-12T06:06:58.001Z,62.75
2023-09-12T06:08:01.026Z,61.78
2023-09-12T06:09:04.806Z,61.25
2023-09-12T06:10:08.776Z,60.48
2023-09-12T06:11:11.426Z,59.71
2023-09-12T06:12:14.096Z,58.98
2023-09-12T06:13:16.764Z,58.30
2023-09-12T06:14:19.379Z,57.33
2023-09-12T06:15:22.323Z,56.74
2023-09-12T06:16:25.669Z,56.65
2023-09-12T06:17:28.550Z,56.11
2023-09-12T06:18:32.390Z,55.74
2023-09-12T06:19:35.131Z,55.44
2023-09-12T06:20:37.860Z,55.17
2023-09-12T06:21:40.491Z,54.98
2023-09-12T06:22:44.517Z,54.76
2023-09-12T06:23:47.137Z,54.66
2023-09-12T06:24:51.693Z,54.59
2023-09-12T06:25:54.404Z,54.30
2023-09-12T06:26:58.463Z,54.12
2023-09-12T06:28:01.250Z,54.03
2023-09-12T06:29:04.112Z,53.90
2023-09-12T06:30:07.539Z,53.68
2023-09-12T06:31:13.612Z,53.54
2023-09-12T06:32:16.974Z,53.45
2023-09-12T06:33:20.339Z,53.02
2023-09-12T06:34:23.551Z,52.64
2023-09-12T06:35:26.570Z,52.43
2023-09-12T06:36:33.062Z,52.00
2023-09-12T06:37:35.903Z,51.77
2023-09-12T06:38:38.612Z,51.56
2023-09-12T06:39:41.651Z,51.58
2023-09-12T06:40:45.321Z,51.50
2023-09-12T06:41:48.435Z,51.23
2023-09-12T06:42:51.385Z,50.99
2023-09-12T06:43:54.386Z,50.82
2023-09-12T06:44:57.621Z,50.52
2023-09-12T06:46:01.320Z,50.52
2023-09-12T06:47:08.353Z,50.29
2023-09-12T06:48:12.865Z,50.19
2023-09-12T06:49:16.581Z,50.17
2023-09-12T06:50:20.739Z,50.04
2023-09-12T06:51:34.780Z,50.04
2023-09-12T06:52:41.148Z,50.33
2023-09-12T06:53:45.574Z,50.30
2023-09-12T06:54:50.160Z,50.14
2023-09-12T06:55:54.547Z,50.04
2023-09-12T06:56:57.839Z,50.00
2023-09-12T06:58:01.158Z,49.99
2023-09-12T06:59:06.929Z,50.06
2023-09-12T07:00:10.709Z,50.15
2023-09-12T07:01:13.448Z,50.32
2023-09-12T07:02:16.170Z,50.45
2023-09-12T07:03:18.897Z,50.48
2023-09-12T07:04:21.621Z,50.54
2023-09-12T07:05:24.303Z,50.65
2023-09-12T07:06:26.990Z,50.73
2023-09-12T07:07:29.702Z,50.83
2023-09-12T07:08:33.462Z,50.77
2023-09-12T07:09:36.121Z,50.83
2023-09-12T07:10:38.742Z,51.05
2023-09-12T07:11:42.753Z,51.15
2023-09-12T07:12:45.434Z,51.20
2023-09-12T07:13:48.918Z,51.23
2023-09-12T07:14:53.013Z,51.22
2023-09-12T07:15:58.256Z,51.32
2023-09-12T07:17:00.881Z,51.53
2023-09-12T07:18:03.611Z,51.75
2023-09-12T07:19:06.467Z,52.02
2023-09-12T07:20:12.795Z,52.35
2023-09-12T07:21:15.618Z,52.14
2023-09-12T07:22:18.283Z,51.99
2023-09-12T07:23:20.924Z,52.35
2023-09-12T07:24:27.349Z,52.33
2023-09-12T07:25:30.023Z,52.37
2023-09-12T07:26:32.697Z,52.14
2023-09-12T07:27:35.323Z,52.25
2023-09-12T07:28:38.598Z,52.38
2023-09-12T07:29:41.214Z,52.34
2023-09-12T07:30:47.282Z,52.33
2023-09-12T07:31:53.659Z,52.22
2023-09-12T07:32:56.357Z,52.22
2023-09-12T07:33:59.096Z,52.24
2023-09-12T07:35:02.190Z,52.34
2023-09-12T07:36:05.101Z,52.37
2023-09-12T07:37:07.841Z,52.45
2023-09-12T07:38:11.184Z,52.39
2023-09-12T07:39:14.449Z,52.36
2023-09-12T07:40:17.728Z,52.35
2023-09-12T07:41:20.742Z,52.27
2023-09-12T07:42:25.227Z,52.36
2023-09-12T07:43:31.099Z,52.68
2023-09-12T07:44:36.418Z,52.69
2023-09-12T07:47:20.122Z,52.73
2023-09-12T07:48:23.776Z,52.98
2023-09-12T07:49:28.089Z,52.96
2023-09-12T07:50:31.804Z,52.93
2023-09-12T07:51:35.827Z,52.60
2023-09-12T07:52:39.906Z,52.47
2023-09-12T07:53:43.529Z,52.35
2023-09-12T07:54:47.464Z,52.47
2023-09-12T07:55:50.339Z,52.46
2023-09-12T07:56:53.067Z,52.54
2023-09-12T07:57:56.005Z,52.69
2023-09-12T07:58:59.073Z,52.65
2023-09-12T08:00:02.556Z,52.69
2023-09-12T08:01:11.526Z,52.65
2023-09-12T08:02:14.123Z,52.59
2023-09-12T08:03:17.110Z,52.52
2023-09-12T08:04:19.947Z,52.63
2023-09-12T08:05:22.662Z,52.36
2023-09-12T08:06:25.560Z,52.06
2023-09-12T08:07:28.247Z,52.01
2023-09-12T08:08:31.845Z,51.85
2023-09-12T08:09:54.257Z,51.83
2023-09-12T08:10:58.030Z,51.34
2023-09-12T08:12:00.680Z,51.34
2023-09-12T08:13:03.626Z,51.16
2023-09-12T08:14:06.270Z,50.90
2023-09-12T08:15:09.804Z,50.86
2023-09-12T08:16:12.757Z,51.20
2023-09-12T08:17:16.875Z,51.13
2023-09-12T08:18:19.537Z,51.44
2023-09-12T08:19:22.189Z,51.10
2023-09-12T08:20:24.810Z,50.70
2023-09-12T08:21:27.483Z,49.76
2023-09-12T08:22:30.042Z,49.76
2023-09-12T08:23:33.174Z,50.02
2023-09-12T08:24:36.729Z,50.21
2023-09-12T08:25:41.116Z,50.04
2023-09-12T08:26:43.760Z,49.97
2023-09-12T08:27:46.756Z,49.87
2023-09-12T08:28:49.612Z,49.55
2023-09-12T08:29:52.276Z,49.14
2023-09-12T08:30:55.379Z,49.32
2023-09-12T08:31:58.900Z,49.23
2023-09-12T08:33:04.453Z,48.91
2023-09-12T08:34:07.627Z,48.61
2023-09-12T08:35:11.599Z,48.18
2023-09-12T08:36:21.588Z,47.88
2023-09-12T08:37:24.432Z,47.53
2023-09-12T08:38:32.616Z,47.52
2023-09-12T08:39:48.175Z,47.56
2023-09-12T08:40:53.517Z,47.91
2023-09-12T08:41:58.012Z,47.60
2023-09-12T08:43:01.591Z,47.65
2023-09-12T08:44:08.007Z,47.60
2023-09-12T08:45:17.823Z,47.51
2023-09-12T08:46:43.388Z,46.79
2023-09-12T08:47:51.460Z,46.11
2023-09-12T08:49:02.869Z,45.97
2023-09-12T08:50:07.081Z,45.75
2023-09-12T08:51:13.769Z,45.84
2023-09-12T08:52:16.560Z,44.75
2023-09-12T08:53:21.869Z,44.14
2023-09-12T08:54:24.547Z,44.16
2023-09-12T08:55:29.955Z,44.24
2023-09-12T08:56:34.115Z,43.99
2023-09-12T08:57:40.850Z,43.47
2023-09-12T08:58:44.602Z,43.34
2023-09-12T08:59:48.965Z,43.35
2023-09-12T09:00:52.225Z,43.39
2023-09-12T09:01:57.040Z,43.27
2023-09-12T09:03:00.503Z,43.29
2023-09-12T09:04:04.865Z,43.34
2023-09-12T09:05:10.235Z,43.12
2023-09-12T09:06:14.330Z,43.32
2023-09-12T09:07:18.981Z,43.15
2023-09-12T09:08:23.011Z,42.85
2023-09-12T09:09:25.886Z,42.52
2023-09-12T09:10:42.613Z,42.54
2023-09-12T09:11:53.284Z,42.83
2023-09-12T09:12:56.003Z,42.77
2023-09-12T09:13:58.756Z,42.57
2023-09-12T09:15:30.475Z,42.60
2023-09-12T09:16:33.449Z,41.56
2023-09-12T09:17:38.567Z,41.35
2023-09-12T09:18:56.284Z,40.85
2023-09-12T09:20:00.674Z,40.80
2023-09-12T09:21:19.636Z,40.94
2023-09-12T09:22:24.225Z,40.45
2023-09-12T09:23:26.899Z,40.57
2023-09-12T09:24:29.724Z,40.47
2023-09-12T09:25:39.000Z,40.81
2023-09-12T09:26:49.768Z,40.64
2023-09-12T09:27:52.584Z,40.20
2023-09-12T09:29:11.642Z,40.91
2023-09-12T09:30:15.671Z,40.96
2023-09-12T09:31:19.163Z,40.81
2023-09-12T09:32:23.636Z,39.77
2023-09-12T09:33:29.060Z,39.34
2023-09-12T09:34:34.242Z,39.74
2023-09-12T09:35:39.335Z,40.57
2023-09-12T09:36:45.205Z,39.28
2023-09-12T09:37:48.755Z,39.51
2023-09-12T09:38:52.847Z,39.39
2023-09-12T09:39:57.226Z,38.99
2023-09-12T09:41:01.722Z,38.94
2023-09-12T09:42:05.903Z,38.75
2023-09-12T09:43:10.625Z,38.43
2023-09-12T09:44:16.160Z,38.53
2023-09-12T09:45:20.632Z,38.29
2023-09-12T09:46:24.549Z,38.34
2023-09-12T09:47:27.611Z,38.29
2023-09-12T09:48:33.093Z,38.25
2023-09-12T09:49:36.061Z,38.34
2023-09-12T09:50:38.770Z,38.64
2023-09-12T09:51:46.265Z,38.57
2023-09-12T09:52:55.018Z,38.38
2023-09-12T09:53:59.503Z,38.37
2023-09-12T09:55:02.856Z,38.37
2023-09-12T09:56:12.839Z,38.58
2023-09-12T09:57:16.402Z,38.49
2023-09-12T09:58:20.972Z,38.15
2023-09-12T09:59:27.455Z,38.19
2023-09-12T10:00:31.928Z,38.73
2023-09-12T10:01:38.694Z,38.36
2023-09-12T10:02:43.054Z,37.52
2023-09-12T10:03:51.105Z,37.95
2023-09-12T10:06:06.287Z,37.41
2023-09-12T10:07:11.785Z,37.50
2023-09-12T10:08:19.535Z,37.35
2023-09-12T10:09:25.053Z,37.05
2023-09-12T10:10:30.665Z,37.12
2023-09-12T10:11:34.974Z,37.01
2023-09-12T10:12:40.980Z,37.28
2023-09-12T10:13:51.382Z,36.79
2023-09-12T10:14:54.767Z,36.88
2023-09-12T10:15:59.796Z,36.92
2023-09-12T10:17:07.621Z,36.95
2023-09-12T10:19:40.932Z,36.83
2023-09-12T10:20:51.507Z,36.81
2023-09-12T10:22:03.695Z,36.67
2023-09-12T10:23:39.073Z,36.38
2023-09-12T10:24:50.486Z,36.15
2023-09-12T10:25:56.225Z,35.81
2023-09-12T10:27:02.543Z,36.00
2023-09-12T10:28:09.125Z,36.10
2023-09-12T10:29:19.253Z,36.17
2023-09-12T10:30:46.965Z,35.96
2023-09-12T10:31:55.206Z,36.10
2023-09-12T10:33:06.401Z,36.12
2023-09-12T10:35:35.792Z,35.68
2023-09-12T10:37:11.493Z,35.51
2023-09-12T10:39:08.104Z,35.87
2023-09-12T10:41:36.127Z,36.01
2023-09-12T10:42:43.458Z,35.63
2023-09-12T10:43:50.429Z,35.90
2023-09-12T10:44:57.828Z,35.86
2023-09-12T10:46:06.184Z,34.82
2023-09-12T10:47:32.324Z,35.22
2023-09-12T10:48:39.527Z,35.17
2023-09-12T10:49:46.373Z,35.67
2023-09-12T10:50:52.892Z,35.34
2023-09-12T10:51:55.724Z,35.59
2023-09-12T10:53:13.250Z,35.50
2023-09-12T10:54:40.440Z,35.63
2023-09-12T10:55:43.795Z,35.59
2023-09-12T10:56:51.928Z,35.50
2023-09-12T10:58:08.373Z,35.49
2023-09-12T10:59:13.147Z,35.51
2023-09-12T11:00:16.239Z,35.49
2023-09-12T11:01:26.636Z,35.82
2023-09-12T11:02:32.076Z,36.11
2023-09-12T11:03:35.040Z,35.25
2023-09-12T11:04:39.020Z,34.88
2023-09-12T11:05:55.148Z,35.04
2023-09-12T11:06:59.735Z,35.26
2023-09-12T11:08:05.203Z,35.44
2023-09-12T11:09:20.606Z,35.36
2023-09-12T11:10:24.427Z,35.49
2023-09-12T11:11:27.367Z,35.55
2023-09-12T11:12:36.838Z,35.36
2023-09-12T11:13:46.826Z,35.16
2023-09-12T11:15:06.936Z,35.69
2023-09-12T11:16:16.122Z,35.76
2023-09-12T11:17:23.888Z,35.86
2023-09-12T11:18:27.291Z,36.05
2023-09-12T11:19:29.995Z,35.92
2023-09-12T11:21:05.013Z,35.68
2023-09-12T11:22:26.038Z,35.88
2023-09-12T11:23:28.958Z,35.68
2023-09-12T11:24:45.718Z,35.31
2023-09-12T11:25:50.423Z,35.06
2023-09-12T11:27:10.541Z,35.11
2023-09-12T11:28:14.019Z,34.98
2023-09-12T11:29:42.268Z,34.87
2023-09-12T11:30:58.654Z,35.02
2023-09-12T11:32:04.676Z,35.01
2023-09-12T11:33:12.776Z,35.17
2023-09-12T11:34:16.439Z,34.97
2023-09-12T11:35:27.214Z,34.71
2023-09-12T11:36:32.159Z,34.64
2023-09-12T11:37:37.188Z,34.15
2023-09-12T11:38:39.854Z,34.61
2023-09-12T11:39:42.590Z,34.86
2023-09-12T11:40:47.130Z,35.04
2023-09-12T11:41:50.548Z,35.14
2023-09-12T11:42:53.479Z,34.90
2023-09-12T11:43:56.972Z,34.80
2023-09-12T11:45:00.272Z,34.58
2023-09-12T11:46:04.074Z,34.48
2023-09-12T11:47:08.778Z,34.39
2023-09-12T11:48:12.595Z,34.55
2023-09-12T11:49:16.281Z,34.94
2023-09-12T11:50:37.173Z,34.90
2023-09-12T11:51:51.807Z,34.74
2023-09-12T11:53:05.305Z,35.00
2023-09-12T11:54:08.552Z,34.75
2023-09-12T11:55:11.199Z,34.73
2023-09-12T11:56:15.250Z,34.83
2023-09-12T11:57:55.614Z,35.15
2023-09-12T12:01:15.479Z,34.91
2023-09-12T12:02:18.954Z,34.69
2023-09-12T12:03:24.047Z,34.72
2023-09-12T12:04:27.284Z,34.59
2023-09-12T12:05:31.416Z,34.62
2023-09-12T12:06:36.567Z,34.56
2023-09-12T12:07:40.004Z,34.51
2023-09-12T12:08:43.230Z,34.66
2023-09-12T12:09:45.922Z,34.89
2023-09-12T12:10:52.596Z,34.66
2023-09-12T12:11:55.234Z,33.92
2023-09-12T12:12:57.993Z,34.09
2023-09-12T12:14:11.426Z,34.10
2023-09-12T12:15:14.867Z,34.35
2023-09-12T12:16:20.772Z,34.56
2023-09-12T12:17:24.808Z,35.22
2023-09-12T12:18:30.842Z,34.69
2023-09-12T12:19:33.764Z,34.18
2023-09-12T12:20:41.073Z,33.49
2023-09-12T12:21:44.272Z,33.58
2023-09-12T12:22:47.827Z,33.60
2023-09-12T12:24:01.329Z,33.43
2023-09-12T12:25:08.766Z,33.19
2023-09-12T12:26:11.973Z,33.24
2023-09-12T12:27:17.746Z,33.16
2023-09-12T12:28:21.471Z,33.26
2023-09-12T12:29:24.162Z,33.51
2023-09-12T12:30:27.059Z,33.53
2023-09-12T12:31:31.716Z,33.59
2023-09-12T12:32:38.493Z,33.69
2023-09-12T12:34:13.212Z,33.51
2023-09-12T12:35:10.746Z,33.55
2023-09-12T12:36:27.277Z,33.74
2023-09-12T12:37:34.415Z,33.84
2023-09-12T12:38:44.807Z,33.92
2023-09-12T12:40:55.986Z,33.87
2023-09-12T12:41:58.726Z,33.99
2023-09-12T12:43:02.351Z,33.75
2023-09-12T12:44:06.110Z,33.43
2023-09-12T12:45:20.613Z,33.15
2023-09-12T12:46:23.566Z,33.23
2023-09-12T12:47:26.470Z,33.39
2023-09-12T12:48:37.735Z,34.21
2023-09-12T12:49:40.814Z,34.42
2023-09-12T12:50:44.188Z,34.41
2023-09-12T12:51:49.918Z,34.19
2023-09-12T12:52:53.409Z,34.04
2023-09-12T12:54:03.860Z,34.12
2023-09-12T12:55:18.007Z,34.51
2023-09-12T12:56:31.604Z,34.03
2023-09-12T12:57:38.471Z,34.01
2023-09-12T12:58:49.736Z,34.09
2023-09-12T12:59:52.713Z,34.09
2023-09-12T13:00:55.632Z,33.76
2023-09-12T13:01:58.279Z,33.66
2023-09-12T13:03:00.924Z,33.70
2023-09-12T13:04:06.413Z,33.75
2023-09-12T13:05:29.472Z,33.84
2023-09-12T13:06:36.898Z,33.91
2023-09-12T13:07:39.603Z,33.54
2023-09-12T13:08:46.048Z,33.11
2023-09-12T13:09:49.408Z,32.81
2023-09-12T13:10:54.947Z,32.59
2023-09-12T13:12:18.974Z,32.61
2023-09-12T13:13:21.801Z,32.74
2023-09-12T13:14:45.391Z,32.39
2023-09-12T13:15:48.444Z,32.61
2023-09-12T13:16:51.232Z,32.41
2023-09-12T13:17:54.023Z,32.58
2023-09-12T13:18:57.340Z,32.68
2023-09-12T13:20:00.532Z,32.73
2023-09-12T13:21:03.988Z,32.79
2023-09-12T13:22:07.105Z,33.26
2023-09-12T13:23:09.967Z,33.29
2023-09-12T13:24:14.638Z,33.27
2023-09-12T13:25:17.422Z,32.79
2023-09-12T13:26:20.280Z,32.76
2023-09-12T13:27:23.358Z,32.63
2023-09-12T13:28:28.962Z,32.68
2023-09-12T13:29:31.956Z,32.71
2023-09-12T13:30:35.067Z,32.77
2023-09-12T13:31:39.009Z,32.90
2023-09-12T13:32:41.804Z,33.04
2023-09-12T13:33:44.935Z,32.56
2023-09-12T13:34:47.718Z,32.32
2023-09-12T13:35:51.017Z,32.67
2023-09-12T13:37:05.640Z,32.72
2023-09-12T13:38:14.936Z,32.60
2023-09-12T13:39:18.725Z,32.56
2023-09-12T13:40:22.447Z,32.52
2023-09-12T13:41:26.752Z,32.84
2023-09-12T13:42:32.527Z,33.03
2023-09-12T13:43:35.474Z,33.01
2023-09-12T13:44:38.465Z,33.09
2023-09-12T13:45:42.060Z,33.37
2023-09-12T13:46:48.903Z,33.54
2023-09-12T13:47:51.816Z,33.28
2023-09-12T13:48:54.683Z,32.82
2023-09-12T13:49:58.081Z,32.99
2023-09-12T13:51:00.794Z,32.90
2023-09-12T13:52:03.994Z,32.95
2023-09-12T13:53:09.536Z,32.91
2023-09-12T13:54:15.952Z,32.90
2023-09-12T13:55:47.220Z,32.83
2023-09-12T13:56:45.540Z,32.99
2023-09-12T13:57:52.952Z,32.90
2023-09-12T13:58:57.182Z,33.01
2023-09-12T13:59:59.922Z,32.94
2023-09-12T14:01:04.082Z,33.29
2023-09-12T14:02:07.029Z,33.06
2023-09-12T14:03:10.135Z,32.96
2023-09-12T14:04:13.046Z,32.66
2023-09-12T14:05:16.230Z,32.33
2023-09-12T14:06:19.371Z,32.08
2023-09-12T14:07:23.706Z,31.73
2023-09-12T14:08:26.653Z,32.07